createdAt,value
2023-02-20T00:01:55.908Z,7.41
2023-02-20T00:04:22.556Z,7.40
2023-02-20T00:06:49.127Z,7.41
2023-02-20T00:09:15.737Z,7.41
2023-02-20T00:11:42.308Z,7.42
2023-02-20T00:14:08.739Z,7.38
2023-02-20T00:16:35.148Z,7.40
2023-02-20T00:19:01.524Z,7.40
2023-02-20T00:21:27.920Z,7.40
2023-02-20T00:23:54.308Z,7.41
2023-02-20T00:26:20.948Z,7.40
2023-02-20T00:28:47.407Z,7.42
2023-02-20T00:31:16.189Z,7.41
2023-02-20T00:33:42.849Z,7.39
2023-02-20T00:36:15.160Z,7.38
2023-02-20T00:38:43.919Z,7.38
2023-02-20T00:41:12.258Z,7.38
2023-02-20T00:43:38.927Z,7.38
2023-02-20T00:46:05.493Z,7.37
2023-02-20T00:48:31.961Z,7.40
2023-02-20T00:51:17.219Z,7.42
2023-02-20T00:53:45.336Z,7.42
2023-02-20T00:56:11.974Z,7.40
2023-02-20T00:58:39.922Z,7.41
2023-02-20T01:01:06.643Z,7.43
2023-02-20T01:03:33.146Z,7.44
2023-02-20T01:05:59.596Z,7.44
2023-02-20T01:08:26.035Z,7.44
2023-02-20T01:10:52.448Z,7.43
2023-02-20T01:13:19.544Z,7.44
2023-02-20T01:15:47.130Z,7.45
2023-02-20T01:18:13.677Z,7.45
2023-02-20T01:20:40.146Z,7.44
2023-02-20T01:23:06.683Z,7.44
2023-02-20T01:25:34.644Z,7.43
2023-02-20T01:28:01.191Z,7.41
2023-02-20T01:30:27.694Z,7.41
2023-02-20T01:32:54.177Z,7.39
2023-02-20T01:35:20.710Z,7.38
2023-02-20T01:37:47.163Z,7.34
2023-02-20T01:40:24.436Z,7.32
2023-02-20T01:42:51.042Z,7.29
2023-02-20T01:45:29.340Z,7.28
2023-02-20T01:47:58.103Z,7.27
2023-02-20T01:50:33.185Z,7.25
2023-02-20T01:53:04.979Z,7.21
2023-02-20T01:55:39.161Z,7.21
2023-02-20T01:58:17.763Z,7.21
2023-02-20T02:00:44.518Z,7.17
2023-02-20T02:03:14.621Z,7.17
2023-02-20T02:05:46.100Z,7.14
2023-02-20T02:08:16.435Z,7.11
2023-02-20T02:10:59.817Z,7.09
2023-02-20T02:13:26.210Z,7.05
2023-02-20T02:16:07.011Z,7.03
2023-02-20T02:19:15.599Z,7.01
2023-02-20T02:22:12.926Z,6.95
2023-02-20T02:25:00.626Z,6.89
2023-02-20T02:27:47.264Z,6.85
2023-02-20T02:30:25.934Z,6.79
2023-02-20T02:32:53.310Z,6.75
2023-02-20T02:35:31.865Z,6.72
2023-02-20T02:38:12.503Z,6.71
2023-02-20T02:41:02.170Z,6.68
2023-02-20T02:43:49.964Z,6.65
2023-02-20T02:46:27.760Z,6.64
2023-02-20T02:49:03.638Z,6.61
2023-02-20T02:51:35.941Z,6.60
2023-02-20T02:54:10.301Z,6.56
2023-02-20T02:56:47.971Z,6.57
2023-02-20T02:59:28.692Z,6.55
2023-02-20T03:02:03.403Z,6.52
2023-02-20T03:04:33.450Z,6.55
2023-02-20T03:07:07.636Z,6.53
2023-02-20T03:09:39.113Z,6.56
2023-02-20T03:12:09.437Z,6.56
2023-02-20T03:15:01.382Z,6.58
2023-02-20T03:17:37.305Z,6.59
2023-02-20T03:20:11.981Z,6.61
2023-02-20T03:22:55.711Z,6.62
2023-02-20T03:25:30.868Z,6.62
2023-02-20T03:28:03.529Z,6.63
2023-02-20T03:30:37.798Z,6.65
2023-02-20T03:33:38.008Z,6.65
2023-02-20T03:36:27.921Z,6.65
2023-02-20T03:39:28.324Z,6.65
2023-02-20T03:42:15.734Z,6.64
2023-02-20T03:44:47.420Z,6.67
2023-02-20T03:47:18.818Z,6.68
2023-02-20T03:49:49.593Z,6.66
2023-02-20T03:52:18.089Z,6.65
2023-02-20T03:54:44.800Z,6.63
2023-02-20T03:57:14.907Z,6.61
2023-02-20T03:59:49.294Z,6.57
2023-02-20T04:02:32.541Z,6.53
2023-02-20T04:05:08.045Z,6.52
2023-02-20T04:07:41.424Z,6.52
2023-02-20T04:10:15.120Z,6.49
2023-02-20T04:12:45.436Z,6.47
2023-02-20T04:15:13.984Z,6.46
2023-02-20T04:17:55.119Z,6.45
2023-02-20T04:20:21.754Z,6.42
2023-02-20T04:23:05.393Z,6.35
2023-02-20T04:25:42.519Z,6.37
2023-02-20T04:28:09.525Z,6.34
2023-02-20T04:30:47.784Z,6.26
2023-02-20T04:33:15.805Z,6.24
2023-02-20T04:35:43.700Z,6.22
2023-02-20T04:38:11.275Z,6.17
2023-02-20T04:40:38.139Z,6.15
2023-02-20T04:43:05.777Z,6.11
2023-02-20T04:45:32.600Z,6.07
2023-02-20T04:47:59.128Z,6.08
2023-02-20T04:50:31.468Z,6.06
2023-02-20T04:52:58.944Z,6.06
2023-02-20T04:55:27.238Z,6.02
2023-02-20T04:57:57.878Z,6.03
2023-02-20T05:00:27.923Z,6.02
2023-02-20T05:02:55.260Z,6.01
2023-02-20T05:05:27.078Z,5.99
2023-02-20T05:07:58.220Z,5.96
2023-02-20T05:10:26.054Z,5.90
2023-02-20T05:12:52.649Z,5.92
2023-02-20T05:15:20.075Z,5.87
2023-02-20T05:17:46.852Z,5.88
2023-02-20T05:20:14.800Z,5.88
2023-02-20T05:22:41.241Z,5.87
2023-02-20T05:25:08.727Z,5.84
2023-02-20T05:27:35.476Z,5.87
2023-02-20T05:30:02.618Z,5.85
2023-02-20T05:32:30.541Z,5.85
2023-02-20T05:34:57.562Z,5.85
2023-02-20T05:37:28.231Z,5.78
2023-02-20T05:39:54.913Z,5.83
2023-02-20T05:42:22.968Z,5.87
2023-02-20T05:44:49.934Z,5.81
2023-02-20T05:47:17.043Z,5.80
2023-02-20T05:49:43.542Z,5.76
2023-02-20T05:52:12.875Z,5.77
2023-02-20T05:54:40.483Z,5.72
2023-02-20T05:57:08.119Z,5.74
2023-02-20T05:59:34.653Z,5.65
2023-02-20T06:02:01.177Z,5.67
2023-02-20T06:04:28.337Z,5.64
2023-02-20T06:06:54.831Z,5.61
2023-02-20T06:09:21.298Z,5.54
2023-02-20T06:11:55.530Z,5.54
2023-02-20T06:14:24.689Z,5.54
2023-02-20T06:16:51.208Z,5.52
2023-02-20T06:19:20.105Z,5.50
2023-02-20T06:21:47.055Z,5.47
2023-02-20T06:24:13.593Z,5.43
2023-02-20T06:26:41.900Z,5.41
2023-02-20T06:29:08.948Z,5.44
2023-02-20T06:31:35.684Z,5.44
2023-02-20T06:34:02.311Z,5.38
2023-02-20T06:36:32.718Z,5.46
2023-02-20T06:38:59.529Z,5.45
2023-02-20T06:41:26.305Z,5.52
2023-02-20T06:43:52.908Z,5.56
2023-02-20T06:46:19.472Z,5.60
2023-02-20T06:48:54.279Z,5.64
2023-02-20T06:51:23.631Z,5.71
2023-02-20T06:53:50.090Z,5.77
2023-02-20T06:56:20.214Z,5.81
2023-02-20T06:58:47.847Z,5.80
2023-02-20T07:01:15.594Z,5.89
2023-02-20T07:03:42.238Z,5.91
2023-02-20T07:06:08.936Z,5.94
2023-02-20T07:08:35.374Z,5.96
2023-02-20T07:11:01.821Z,5.98
2023-02-20T07:13:28.208Z,5.98
2023-02-20T07:15:54.625Z,6.02
2023-02-20T07:18:23.799Z,6.05
2023-02-20T07:20:53.077Z,6.10
2023-02-20T07:23:21.662Z,6.16
2023-02-20T07:25:49.648Z,6.21
2023-02-20T07:28:18.310Z,6.21
2023-02-20T07:30:45.433Z,6.28
2023-02-20T07:33:12.149Z,6.35
2023-02-20T07:35:38.564Z,6.41
2023-02-20T07:38:07.013Z,6.46
2023-02-20T07:40:33.566Z,6.52
2023-02-20T07:43:00.039Z,6.57
2023-02-20T07:45:29.348Z,6.62
2023-02-20T07:47:55.846Z,6.66
2023-02-20T07:50:22.351Z,6.71
2023-02-20T07:52:48.842Z,6.77
2023-02-20T07:55:19.327Z,6.83
2023-02-20T07:57:48.129Z,6.87
2023-02-20T08:00:17.580Z,6.89
2023-02-20T08:02:44.376Z,6.96
2023-02-20T08:05:11.208Z,7.07
2023-02-20T08:07:37.820Z,7.12
2023-02-20T08:10:05.714Z,7.19
2023-02-20T08:12:32.423Z,7.26
2023-02-20T08:14:58.849Z,7.33
2023-02-20T08:17:29.695Z,7.40
2023-02-20T08:20:00.859Z,7.50
2023-02-20T08:22:36.542Z,7.56
2023-02-20T08:25:06.913Z,7.65
2023-02-20T08:27:33.402Z,7.74
2023-02-20T08:29:59.837Z,7.77
2023-02-20T08:32:26.463Z,7.86
2023-02-20T08:34:52.883Z,8.00
2023-02-20T08:37:20.173Z,8.11
2023-02-20T08:39:46.548Z,8.24
2023-02-20T08:42:17.688Z,8.32
2023-02-20T08:44:44.161Z,8.35
2023-02-20T08:47:10.626Z,8.36
2023-02-20T08:49:37.109Z,8.39
2023-02-20T08:52:05.679Z,8.45
2023-02-20T08:54:32.190Z,8.48
2023-02-20T08:56:58.619Z,8.53
2023-02-20T08:59:25.162Z,8.54
2023-02-20T09:01:51.594Z,8.62
2023-02-20T09:04:20.555Z,8.71
2023-02-20T09:06:46.993Z,8.79
2023-02-20T09:09:13.651Z,8.85
2023-02-20T09:11:40.272Z,8.90
2023-02-20T09:14:06.814Z,8.95
2023-02-20T09:16:33.271Z,9.02
2023-02-20T09:19:00.276Z,9.11
2023-02-20T09:21:29.212Z,9.16
2023-02-20T09:23:55.736Z,9.26
2023-02-20T09:26:22.168Z,9.35
2023-02-20T09:28:48.850Z,9.43
2023-02-20T09:31:15.284Z,9.48
2023-02-20T09:33:50.933Z,9.59
2023-02-20T09:36:17.957Z,9.70
2023-02-20T09:38:44.472Z,9.79
2023-02-20T09:41:34.387Z,9.84
2023-02-20T09:44:12.551Z,9.89
2023-02-20T09:46:40.629Z,9.95
2023-02-20T09:49:12.806Z,9.98
2023-02-20T09:51:49.016Z,9.93
2023-02-20T09:54:31.060Z,10.06
2023-02-20T09:57:01.036Z,10.09
2023-02-20T09:59:38.577Z,10.13
2023-02-20T10:02:29.879Z,10.21
2023-02-20T10:05:04.443Z,10.33
2023-02-20T10:07:37.743Z,10.51
2023-02-20T10:10:18.387Z,10.65
2023-02-20T10:12:56.487Z,10.77
2023-02-20T10:15:43.375Z,10.83
2023-02-20T10:18:51.183Z,11.10
2023-02-20T10:21:39.192Z,11.39
2023-02-20T10:24:33.965Z,11.26
2023-02-20T10:27:18.807Z,11.22
2023-02-20T10:29:45.967Z,11.25
2023-02-20T10:32:20.979Z,11.35
2023-02-20T10:34:50.987Z,11.57
2023-02-20T10:37:21.507Z,11.73
2023-02-20T10:39:55.661Z,11.82
2023-02-20T10:42:31.130Z,11.97
2023-02-20T10:45:05.730Z,12.10
2023-02-20T10:47:54.724Z,12.25
2023-02-20T10:50:28.764Z,12.36
2023-02-20T10:53:14.692Z,12.42
2023-02-20T10:56:01.050Z,12.60
2023-02-20T10:58:42.380Z,12.74
2023-02-20T11:01:15.147Z,12.78
2023-02-20T11:03:46.596Z,12.85
2023-02-20T11:06:17.142Z,12.96
2023-02-20T11:08:43.927Z,13.19
2023-02-20T11:11:31.375Z,13.31
2023-02-20T11:14:02.376Z,13.40
2023-02-20T11:16:33.692Z,13.46
2023-02-20T11:19:08.382Z,13.75
2023-02-20T11:21:37.716Z,13.82
2023-02-20T11:24:40.335Z,13.92
2023-02-20T11:27:14.802Z,13.91
2023-02-20T11:29:49.399Z,14.01
2023-02-20T11:32:33.332Z,14.12
2023-02-20T11:35:26.822Z,14.35
2023-02-20T11:38:33.303Z,14.48
2023-02-20T11:41:04.962Z,14.56
2023-02-20T11:43:33.183Z,14.77
2023-02-20T11:46:27.127Z,14.76
2023-02-20T11:49:01.317Z,14.72
2023-02-20T11:51:37.087Z,14.67
2023-02-20T11:54:09.713Z,14.69
2023-02-20T11:56:36.589Z,14.73
2023-02-20T11:59:50.990Z,14.92
2023-02-20T12:02:17.324Z,14.95
2023-02-20T12:04:44.953Z,15.05
2023-02-20T12:07:28.432Z,15.16
2023-02-20T12:09:59.676Z,15.27
2023-02-20T12:12:28.415Z,15.27
2023-02-20T12:14:54.873Z,15.35
2023-02-20T12:17:30.314Z,15.44
2023-02-20T12:20:09.159Z,15.56
2023-02-20T12:22:37.976Z,15.57
2023-02-20T12:25:16.629Z,15.55
2023-02-20T12:27:51.815Z,15.69
2023-02-20T12:30:43.105Z,15.74
2023-02-20T12:33:34.844Z,15.83
2023-02-20T12:36:35.405Z,15.75
2023-02-20T12:39:04.785Z,15.92
2023-02-20T12:41:33.735Z,16.00
2023-02-20T12:44:33.837Z,16.00
2023-02-20T12:47:27.808Z,15.99
2023-02-20T12:50:06.291Z,16.15
2023-02-20T12:52:48.031Z,16.35
2023-02-20T12:55:32.531Z,16.49
2023-02-20T12:58:23.905Z,16.63
2023-02-20T13:00:52.694Z,16.75
2023-02-20T13:04:04.472Z,16.77
2023-02-20T13:06:36.867Z,16.59
2023-02-20T13:09:33.617Z,16.33
2023-02-20T13:12:11.689Z,16.34
2023-02-20T13:15:12.065Z,16.36
2023-02-20T13:17:47.067Z,16.27
2023-02-20T13:20:27.581Z,16.39
2023-02-20T13:23:00.989Z,16.41
2023-02-20T13:25:33.290Z,16.47
2023-02-20T13:28:12.856Z,16.49
2023-02-20T13:30:40.525Z,16.53
2023-02-20T13:33:18.903Z,16.56
2023-02-20T13:35:56.941Z,16.53
2023-02-20T13:38:27.795Z,16.51
2023-02-20T13:40:58.678Z,16.64
2023-02-20T13:43:29.513Z,16.63
2023-02-20T13:46:03.797Z,16.75
2023-02-20T13:48:30.165Z,16.81
2023-02-20T13:51:14.713Z,16.73
2023-02-20T13:53:43.435Z,16.79
2023-02-20T13:56:45.160Z,16.89
2023-02-20T13:59:17.934Z,17.02
2023-02-20T14:02:17.916Z,16.87
2023-02-20T14:05:06.764Z,16.75
2023-02-20T14:07:37.684Z,16.84
2023-02-20T14:10:18.765Z,16.94
2023-02-20T14:12:52.772Z,17.00
2023-02-20T14:15:19.273Z,17.13
2023-02-20T14:17:45.761Z,17.25
2023-02-20T14:20:20.593Z,17.29
2023-02-20T14:22:47.055Z,17.42
2023-02-20T14:25:27.235Z,17.61
2023-02-20T14:28:10.612Z,17.79
2023-02-20T14:30:37.491Z,17.97
2023-02-20T14:33:09.534Z,18.02
2023-02-20T14:36:01.405Z,18.10
2023-02-20T14:38:40.220Z,18.04
2023-02-20T14:41:18.779Z,18.06
2023-02-20T14:43:45.471Z,18.08
2023-02-20T14:46:23.152Z,18.03
2023-02-20T14:48:49.773Z,17.96
2023-02-20T14:51:25.032Z,18.04
2023-02-20T14:53:59.764Z,17.88
2023-02-20T14:56:26.689Z,17.91
2023-02-20T14:58:53.340Z,18.02
2023-02-20T15:01:37.471Z,18.05
2023-02-20T15:04:08.108Z,18.08
2023-02-20T15:06:36.676Z,18.12
2023-02-20T15:09:19.888Z,18.07
2023-02-20T15:11:55.791Z,17.97
2023-02-20T15:14:26.950Z,17.92
2023-02-20T15:17:09.057Z,18.02
2023-02-20T15:19:39.753Z,18.25
2023-02-20T15:22:21.423Z,18.38
2023-02-20T15:24:47.897Z,18.42
2023-02-20T15:27:18.691Z,18.56
2023-02-20T15:29:47.019Z,18.81
2023-02-20T15:32:26.214Z,19.32
2023-02-20T15:34:55.810Z,20.18
2023-02-20T15:37:37.930Z,21.71
2023-02-20T15:40:24.923Z,23.34
2023-02-20T15:42:56.895Z,24.81
2023-02-20T15:45:25.730Z,25.82
2023-02-20T15:47:52.374Z,25.36
2023-02-20T15:50:18.954Z,24.00
2023-02-20T15:52:46.253Z,23.07
2023-02-20T15:55:20.696Z,22.34
2023-02-20T15:57:54.835Z,21.93
2023-02-20T16:00:25.106Z,22.76
2023-02-20T16:02:52.688Z,23.15
2023-02-20T16:05:19.935Z,23.78
2023-02-20T16:07:46.589Z,24.78
2023-02-20T16:10:16.784Z,25.45
2023-02-20T16:12:43.875Z,26.09
2023-02-20T16:15:16.295Z,26.97
2023-02-20T16:17:43.233Z,26.90
2023-02-20T16:20:17.773Z,26.32
2023-02-20T16:22:44.392Z,25.88
2023-02-20T16:25:12.508Z,25.05
2023-02-20T16:27:39.127Z,24.53
2023-02-20T16:30:07.181Z,24.00
2023-02-20T16:32:34.035Z,23.39
2023-02-20T16:35:01.425Z,21.77
2023-02-20T16:37:28.896Z,20.08
2023-02-20T16:39:55.353Z,18.72
2023-02-20T16:42:28.528Z,17.65
2023-02-20T16:44:55.435Z,16.81
2023-02-20T16:47:24.587Z,16.12
2023-02-20T16:49:51.750Z,15.51
2023-02-20T16:52:23.941Z,14.97
2023-02-20T16:54:51.132Z,14.53
2023-02-20T16:57:18.671Z,14.15
2023-02-20T16:59:45.148Z,13.83
2023-02-20T17:02:17.417Z,13.53
2023-02-20T17:04:44.386Z,13.27
2023-02-20T17:07:11.060Z,13.07
2023-02-20T17:09:43.876Z,12.87
2023-02-20T17:12:14.707Z,12.70
2023-02-20T17:14:41.162Z,12.55
2023-02-20T17:17:08.179Z,12.42
2023-02-20T17:19:37.084Z,12.27
2023-02-20T17:22:03.549Z,12.12
2023-02-20T17:24:30.062Z,11.94
2023-02-20T17:26:56.573Z,11.72
2023-02-20T17:29:23.036Z,11.50
2023-02-20T17:31:49.739Z,11.36
2023-02-20T17:34:16.358Z,11.26
2023-02-20T17:36:48.104Z,11.24
2023-02-20T17:39:21.277Z,11.22
2023-02-20T17:41:49.316Z,11.19
2023-02-20T17:44:17.509Z,11.15
2023-02-20T17:46:44.050Z,11.11
2023-02-20T17:49:11.237Z,11.04
2023-02-20T17:51:37.660Z,10.93
2023-02-20T17:54:04.389Z,10.83
2023-02-20T17:56:30.835Z,10.73
2023-02-20T17:58:57.231Z,10.63
2023-02-20T18:01:27.382Z,10.57
2023-02-20T18:03:55.193Z,10.50
2023-02-20T18:06:22.275Z,10.45
2023-02-20T18:08:50.471Z,10.39
2023-02-20T18:11:17.811Z,10.32
2023-02-20T18:13:44.977Z,10.23
2023-02-20T18:16:11.868Z,10.19
2023-02-20T18:18:38.470Z,10.11
2023-02-20T18:21:05.089Z,10.11
2023-02-20T18:23:31.559Z,10.06
2023-02-20T18:25:58.091Z,10.02
2023-02-20T18:28:24.543Z,9.98
2023-02-20T18:30:50.911Z,9.94
2023-02-20T18:33:17.318Z,9.88
2023-02-20T18:35:43.728Z,9.84
2023-02-20T18:38:10.173Z,9.79
2023-02-20T18:40:36.719Z,9.75
2023-02-20T18:43:03.186Z,9.72
2023-02-20T18:45:29.686Z,9.72
2023-02-20T18:47:56.174Z,9.71
2023-02-20T18:50:22.647Z,9.69
2023-02-20T18:52:49.605Z,9.70
2023-02-20T18:55:20.106Z,9.69
2023-02-20T18:57:48.187Z,9.67
2023-02-20T19:00:20.004Z,9.63
2023-02-20T19:02:46.769Z,9.61
2023-02-20T19:05:13.548Z,9.57
2023-02-20T19:07:44.326Z,9.57
2023-02-20T19:10:12.095Z,9.54
2023-02-20T19:12:38.753Z,9.52
2023-02-20T19:15:09.202Z,9.53
2023-02-20T19:17:37.629Z,9.50
2023-02-20T19:20:07.035Z,9.46
2023-02-20T19:22:33.691Z,9.48
2023-02-20T19:25:03.647Z,9.46
2023-02-20T19:27:30.166Z,9.52
2023-02-20T19:29:56.572Z,9.54
2023-02-20T19:32:23.193Z,9.55
2023-02-20T19:34:49.810Z,9.62
2023-02-20T19:37:17.438Z,9.65
2023-02-20T19:39:43.865Z,9.63
2023-02-20T19:42:10.392Z,9.70
2023-02-20T19:44:37.988Z,9.72
2023-02-20T19:47:04.508Z,9.80
2023-02-20T19:49:30.999Z,9.86
2023-02-20T19:51:57.481Z,9.89
2023-02-20T19:54:27.613Z,9.92
2023-02-20T19:56:58.111Z,9.95
2023-02-20T19:59:25.150Z,9.96
2023-02-20T20:01:53.950Z,9.95
2023-02-20T20:04:22.581Z,9.96
2023-02-20T20:06:49.508Z,9.92
2023-02-20T20:09:26.840Z,9.91
2023-02-20T20:12:01.391Z,9.93
2023-02-20T20:14:27.827Z,9.88
2023-02-20T20:16:54.374Z,9.88
2023-02-20T20:19:20.833Z,9.86
2023-02-20T20:21:49.514Z,9.80
2023-02-20T20:24:16.030Z,9.81
2023-02-20T20:26:42.423Z,9.80
2023-02-20T20:29:08.920Z,9.78
2023-02-20T20:31:38.814Z,9.74
2023-02-20T20:34:06.061Z,9.77
2023-02-20T20:36:32.552Z,9.73
2023-02-20T20:38:58.957Z,9.68
2023-02-20T20:41:26.615Z,9.68
2023-02-20T20:43:56.018Z,9.64
2023-02-20T20:46:22.442Z,9.60
2023-02-20T20:48:48.980Z,9.57
2023-02-20T20:51:18.024Z,9.54
2023-02-20T20:53:45.372Z,9.47
2023-02-20T20:56:12.549Z,9.53
2023-02-20T20:58:39.317Z,9.49
2023-02-20T21:01:05.932Z,9.50
2023-02-20T21:03:32.506Z,9.48
2023-02-20T21:05:59.016Z,9.44
2023-02-20T21:08:25.543Z,9.41
2023-02-20T21:10:52.007Z,9.38
2023-02-20T21:13:18.451Z,9.35
2023-02-20T21:15:44.857Z,9.35
2023-02-20T21:18:11.625Z,9.26
2023-02-20T21:20:38.053Z,9.23
2023-02-20T21:23:04.865Z,9.21
2023-02-20T21:25:31.349Z,9.19
2023-02-20T21:27:58.211Z,9.18
2023-02-20T21:30:26.593Z,9.16
2023-02-20T21:32:53.914Z,9.13
2023-02-20T21:35:21.887Z,9.08
2023-02-20T21:37:48.331Z,9.08
2023-02-20T21:40:16.661Z,9.06
2023-02-20T21:43:01.653Z,9.05
2023-02-20T21:45:28.117Z,9.02
2023-02-20T21:47:54.570Z,9.02
2023-02-20T21:50:21.552Z,8.99
2023-02-20T21:52:49.093Z,8.97
2023-02-20T21:55:16.951Z,8.92
2023-02-20T21:57:43.421Z,8.91
2023-02-20T22:00:11.578Z,8.90
2023-02-20T22:02:38.188Z,8.89
2023-02-20T22:05:06.094Z,8.86
2023-02-20T22:07:50.988Z,8.82
2023-02-20T22:10:36.323Z,8.76
2023-02-20T22:13:21.609Z,8.78
2023-02-20T22:16:06.347Z,8.75
2023-02-20T22:18:51.388Z,8.73
2023-02-20T22:21:42.457Z,8.70
2023-02-20T22:24:37.844Z,8.63
2023-02-20T22:27:26.251Z,8.56
2023-02-20T22:30:11.644Z,8.47
2023-02-20T22:32:56.837Z,8.47
2023-02-20T22:35:42.610Z,8.45
2023-02-20T22:38:27.586Z,8.44
2023-02-20T22:41:12.528Z,8.45
2023-02-20T22:43:57.482Z,8.41
2023-02-20T22:46:42.260Z,8.36
2023-02-20T22:49:27.280Z,8.34
2023-02-20T22:52:12.173Z,8.30
2023-02-20T22:55:04.730Z,8.28
2023-02-20T22:57:51.303Z,8.20
2023-02-20T23:00:36.582Z,8.16
2023-02-20T23:03:22.037Z,8.16
2023-02-20T23:06:16.818Z,8.17
2023-02-20T23:09:02.647Z,8.21
2023-02-20T23:11:47.427Z,8.21
2023-02-20T23:14:33.745Z,8.17
2023-02-20T23:17:29.281Z,8.21
2023-02-20T23:20:19.539Z,8.18
2023-02-20T23:23:05.366Z,8.15
2023-02-20T23:25:50.249Z,8.15
2023-02-20T23:28:37.365Z,8.16
2023-02-20T23:31:22.904Z,8.20
2023-02-20T23:34:08.104Z,8.21
2023-02-20T23:36:52.969Z,8.21
2023-02-20T23:39:38.281Z,8.21
2023-02-20T23:42:23.270Z,8.20
2023-02-20T23:45:08.760Z,8.21
2023-02-20T23:47:53.841Z,8.20
2023-02-20T23:50:38.953Z,8.19
2023-02-20T23:53:23.787Z,8.18
2023-02-20T23:56:08.699Z,8.18
2023-02-20T23:58:53.890Z,8.18
